Terminal Aerodrome Forecast
Issued by NWS

Home | Current Version | Previous Version | Text Only | Print | Product List | Glossary On
Versions: 1 2 3 4 5 6 7 8 9 10 11 12 13 14 15 16 17 18 19 20 21 22 23 24 25 26 27 28 29 30 31 32
000
FTUS45 KBOU 211138
TAFAPA
TAF
KAPA 211138Z 2112/2212 20012KT P6SM FEW030 SCT060 SCT100
     FM211400 31012KT P6SM VCSH SCT030 BKN050
      TEMPO 2115/2118 -SHRA BKN020
     FM211800 03013KT P6SM VCSH SCT030 BKN060 OVC100
      TEMPO 2118/2122 -SHRA BKN030
     FM220100 11007KT P6SM VCSH SCT040 BKN080
     FM220500 15007KT P6SM FEW050 BKN090=

USA.gov is the U.S. government's official web portal to all federal, state and local government web resources and services.